sensor_id;sensor_type;location;lat;lon;timestamp;temperature;humidity
29173;DHT22;16223;47.966;-1.616;2022-07-19T00:00:34;25.6;45
29173;DHT22;16223;47.966;-1.616;2022-07-19T00:01:34;25.6;45
29173;DHT22;16223;47.966;-1.616;2022-07-19T00:02:34;25.6;45
29173;DHT22;16223;47.966;-1.616;2022-07-19T00:03:34;25.6;45
29173;DHT22;16223;47.966;-1.616;2022-07-19T00:04:35;25.6;45
29173;DHT22;16223;47.966;-1.616;2022-07-19T00:05:34;25.6;45
29173;DHT22;16223;47.966;-1.616;2022-07-19T00:06:34;25.6;45
29173;DHT22;16223;47.966;-1.616;2022-07-19T00:07:34;25.6;45
29173;DHT22;16223;47.966;-1.616;2022-07-19T00:08:34;25.6;45
29173;DHT22;16223;47.966;-1.616;2022-07-19T00:09:34;25.6;45
29173;DHT22;16223;47.966;-1.616;2022-07-19T00:10:34;25.6;45
29173;DHT22;16223;47.966;-1.616;2022-07-19T00:11:34;25.6;45
29173;DHT22;16223;47.966;-1.616;2022-07-19T00:12:34;25.1;46
29173;DHT22;16223;47.966;-1.616;2022-07-19T00:13:34;25.1;46
29173;DHT22;16223;47.966;-1.616;2022-07-19T00:14:34;25.1;46
29173;DHT22;16223;47.966;-1.616;2022-07-19T00:15:34;25.1;46
29173;DHT22;16223;47.966;-1.616;2022-07-19T00:16:34;25.1;46
29173;DHT22;16223;47.966;-1.616;2022-07-19T00:17:34;25.1;46
29173;DHT22;16223;47.966;-1.616;2022-07-19T00:18:35;25.1;46
29173;DHT22;16223;47.966;-1.616;2022-07-19T00:19:34;25.1;46
29173;DHT22;16223;47.966;-1.616;2022-07-19T00:20:34;25.1;46
29173;DHT22;16223;47.966;-1.616;2022-07-19T00:21:34;25.1;46
29173;DHT22;16223;47.966;-1.616;2022-07-19T00:22:34;25.1;46
29173;DHT22;16223;47.966;-1.616;2022-07-19T00:23:34;25.1;46
29173;DHT22;16223;47.966;-1.616;2022-07-19T00:24:34;25.1;46
29173;DHT22;16223;47.966;-1.616;2022-07-19T00:25:34;25.1;46
29173;DHT22;16223;47.966;-1.616;2022-07-19T00:26:34;25.1;46
29173;DHT22;16223;47.966;-1.616;2022-07-19T00:27:34;25.1;46
29173;DHT22;16223;47.966;-1.616;2022-07-19T00:28:34;25.1;46
29173;DHT22;16223;47.966;-1.616;2022-07-19T00:29:34;25.1;46
29173;DHT22;16223;47.966;-1.616;2022-07-19T00:30:34;25.1;46
29173;DHT22;16223;47.966;-1.616;2022-07-19T00:31:34;25.1;46
29173;DHT22;16223;47.966;-1.616;2022-07-19T00:32:34;25.1;46
29173;DHT22;16223;47.966;-1.616;2022-07-19T00:33:34;25.1;46
29173;DHT22;16223;47.966;-1.616;2022-07-19T00:34:34;24.6;47
29173;DHT22;16223;47.966;-1.616;2022-07-19T00:35:34;24.6;47
29173;DHT22;16223;47.966;-1.616;2022-07-19T00:36:34;24.6;47
29173;DHT22;16223;47.966;-1.616;2022-07-19T00:37:34;24.6;47
29173;DHT22;16223;47.966;-1.616;2022-07-19T00:38:34;24.6;47
29173;DHT22;16223;47.966;-1.616;2022-07-19T00:39:34;24.6;47
29173;DHT22;16223;47.966;-1.616;2022-07-19T00:40:34;24.6;47
29173;DHT22;16223;47.966;-1.616;2022-07-19T00:41:37;24.6;47
29173;DHT22;16223;47.966;-1.616;2022-07-19T00:42:34;24.5;48
29173;DHT22;16223;47.966;-1.616;2022-07-19T00:43:34;24.5;48
29173;DHT22;16223;47.966;-1.616;2022-07-19T00:44:34;24.5;48
29173;DHT22;16223;47.966;-1.616;2022-07-19T00:45:35;24.5;48
29173;DHT22;16223;47.966;-1.616;2022-07-19T00:46:34;24.5;48
29173;DHT22;16223;47.966;-1.616;2022-07-19T00:47:34;24.5;48
29173;DHT22;16223;47.966;-1.616;2022-07-19T00:48:34;24.5;48
29173;DHT22;16223;47.966;-1.616;2022-07-19T00:49:34;24.5;48
29173;DHT22;16223;47.966;-1.616;2022-07-19T00:50:35;24.5;48
29173;DHT22;16223;47.966;-1.616;2022-07-19T00:51:38;24.5;48
29173;DHT22;16223;47.966;-1.616;2022-07-19T00:52:35;24.5;48
29173;DHT22;16223;47.966;-1.616;2022-07-19T00:53:34;24.5;48
29173;DHT22;16223;47.966;-1.616;2022-07-19T00:54:36;24.5;48
29173;DHT22;16223;47.966;-1.616;2022-07-19T00:55:35;24.5;48
29173;DHT22;16223;47.966;-1.616;2022-07-19T00:56:34;24.5;48
29173;DHT22;16223;47.966;-1.616;2022-07-19T00:57:34;24.5;48
29173;DHT22;16223;47.966;-1.616;2022-07-19T00:58:35;24.5;48
29173;DHT22;16223;47.966;-1.616;2022-07-19T00:59:34;24.5;48
29173;DHT22;16223;47.966;-1.616;2022-07-19T01:00:36;24.5;48
29173;DHT22;16223;47.966;-1.616;2022-07-19T01:01:34;24.5;48
29173;DHT22;16223;47.966;-1.616;2022-07-19T01:02:35;24.5;48
29173;DHT22;16223;47.966;-1.616;2022-07-19T01:03:34;24.5;48
29173;DHT22;16223;47.966;-1.616;2022-07-19T01:04:35;24.5;48
29173;DHT22;16223;47.966;-1.616;2022-07-19T01:05:34;24.5;48
29173;DHT22;16223;47.966;-1.616;2022-07-19T01:06:34;24.5;48
29173;DHT22;16223;47.966;-1.616;2022-07-19T01:07:34;24.5;48
29173;DHT22;16223;47.966;-1.616;2022-07-19T01:08:35;24.5;48
29173;DHT22;16223;47.966;-1.616;2022-07-19T01:09:37;24.5;48
29173;DHT22;16223;47.966;-1.616;2022-07-19T01:10:34;24.5;48
29173;DHT22;16223;47.966;-1.616;2022-07-19T01:11:35;24.5;48
29173;DHT22;16223;47.966;-1.616;2022-07-19T01:12:35;24.5;48
29173;DHT22;16223;47.966;-1.616;2022-07-19T01:13:37;24.5;48
29173;DHT22;16223;47.966;-1.616;2022-07-19T01:14:34;24.5;48
29173;DHT22;16223;47.966;-1.616;2022-07-19T01:15:35;24.5;48
29173;DHT22;16223;47.966;-1.616;2022-07-19T01:16:34;24.5;48
29173;DHT22;16223;47.966;-1.616;2022-07-19T01:17:34;24.5;48
29173;DHT22;16223;47.966;-1.616;2022-07-19T01:18:34;24.5;48
29173;DHT22;16223;47.966;-1.616;2022-07-19T01:19:34;24.5;48
29173;DHT22;16223;47.966;-1.616;2022-07-19T01:20:35;24.5;48
29173;DHT22;16223;47.966;-1.616;2022-07-19T01:21:34;24.5;48
29173;DHT22;16223;47.966;-1.616;2022-07-19T01:22:34;24.5;48
29173;DHT22;16223;47.966;-1.616;2022-07-19T01:23:34;24.5;48
29173;DHT22;16223;47.966;-1.616;2022-07-19T01:24:34;24.5;48
29173;DHT22;16223;47.966;-1.616;2022-07-19T01:25:35;24.5;48
29173;DHT22;16223;47.966;-1.616;2022-07-19T01:26:34;24.1;50
29173;DHT22;16223;47.966;-1.616;2022-07-19T01:27:37;24.1;50
29173;DHT22;16223;47.966;-1.616;2022-07-19T01:28:34;24.1;50
29173;DHT22;16223;47.966;-1.616;2022-07-19T01:29:34;24.1;50
29173;DHT22;16223;47.966;-1.616;2022-07-19T01:30:34;24.1;50
29173;DHT22;16223;47.966;-1.616;2022-07-19T01:31:34;24.1;50
29173;DHT22;16223;47.966;-1.616;2022-07-19T01:32:34;24.1;50
29173;DHT22;16223;47.966;-1.616;2022-07-19T01:33:37;24.1;50
29173;DHT22;16223;47.966;-1.616;2022-07-19T01:34:34;24.1;50
29173;DHT22;16223;47.966;-1.616;2022-07-19T01:35:34;24.1;50
29173;DHT22;16223;47.966;-1.616;2022-07-19T01:36:34;24.1;50
29173;DHT22;16223;47.966;-1.616;2022-07-19T01:37:33;24.1;50
29173;DHT22;16223;47.966;-1.616;2022-07-19T01:38:34;24.1;50
29173;DHT22;16223;47.966;-1.616;2022-07-19T01:39:34;24.1;50
29173;DHT22;16223;47.966;-1.616;2022-07-19T01:40:34;24.1;50
29173;DHT22;16223;47.966;-1.616;2022-07-19T01:41:33;24.1;50
29173;DHT22;16223;47.966;-1.616;2022-07-19T01:42:34;24.1;50
29173;DHT22;16223;47.966;-1.616;2022-07-19T01:43:34;24.1;50
29173;DHT22;16223;47.966;-1.616;2022-07-19T01:44:33;24.1;50
29173;DHT22;16223;47.966;-1.616;2022-07-19T01:45:34;24.1;50
29173;DHT22;16223;47.966;-1.616;2022-07-19T01:46:34;24.1;50
29173;DHT22;16223;47.966;-1.616;2022-07-19T01:47:37;24.1;50
29173;DHT22;16223;47.966;-1.616;2022-07-19T01:48:34;24.1;50
29173;DHT22;16223;47.966;-1.616;2022-07-19T01:49:36;24.1;50
29173;DHT22;16223;47.966;-1.616;2022-07-19T01:50:34;24.1;50
29173;DHT22;16223;47.966;-1.616;2022-07-19T01:51:34;24.1;50
29173;DHT22;16223;47.966;-1.616;2022-07-19T01:52:34;24.1;50
29173;DHT22;16223;47.966;-1.616;2022-07-19T01:53:34;24.1;50
29173;DHT22;16223;47.966;-1.616;2022-07-19T01:54:33;24.1;50
29173;DHT22;16223;47.966;-1.616;2022-07-19T01:55:37;24.1;50
29173;DHT22;16223;47.966;-1.616;2022-07-19T01:56:34;24.1;50
29173;DHT22;16223;47.966;-1.616;2022-07-19T01:57:34;24.1;50
29173;DHT22;16223;47.966;-1.616;2022-07-19T01:58:34;24.1;50
29173;DHT22;16223;47.966;-1.616;2022-07-19T01:59:35;24.1;50
29173;DHT22;16223;47.966;-1.616;2022-07-19T02:00:34;24.1;50
29173;DHT22;16223;47.966;-1.616;2022-07-19T02:01:34;24.1;50
29173;DHT22;16223;47.966;-1.616;2022-07-19T02:02:34;24.1;50
29173;DHT22;16223;47.966;-1.616;2022-07-19T02:03:34;24.1;50
29173;DHT22;16223;47.966;-1.616;2022-07-19T02:04:34;24.1;50
29173;DHT22;16223;47.966;-1.616;2022-07-19T02:05:34;24.1;50
29173;DHT22;16223;47.966;-1.616;2022-07-19T02:06:34;24.1;50
29173;DHT22;16223;47.966;-1.616;2022-07-19T02:07:35;24.1;50
29173;DHT22;16223;47.966;-1.616;2022-07-19T02:08:34;24.1;50
29173;DHT22;16223;47.966;-1.616;2022-07-19T02:09:34;24.1;50
29173;DHT22;16223;47.966;-1.616;2022-07-19T02:10:34;24.1;50
29173;DHT22;16223;47.966;-1.616;2022-07-19T02:11:34;24.1;50
29173;DHT22;16223;47.966;-1.616;2022-07-19T02:12:34;24.1;50
29173;DHT22;16223;47.966;-1.616;2022-07-19T02:13:34;24.1;50
29173;DHT22;16223;47.966;-1.616;2022-07-19T02:14:34;24.1;50
29173;DHT22;16223;47.966;-1.616;2022-07-19T02:15:34;24.0;50
29173;DHT22;16223;47.966;-1.616;2022-07-19T02:16:34;24.0;50
29173;DHT22;16223;47.966;-1.616;2022-07-19T02:17:34;24.0;50
29173;DHT22;16223;47.966;-1.616;2022-07-19T02:18:44;24.0;50
29173;DHT22;16223;47.966;-1.616;2022-07-19T02:19:34;24.0;50
29173;DHT22;16223;47.966;-1.616;2022-07-19T02:20:34;24.0;50
29173;DHT22;16223;47.966;-1.616;2022-07-19T02:21:34;24.0;50
29173;DHT22;16223;47.966;-1.616;2022-07-19T02:22:37;24.0;50
29173;DHT22;16223;47.966;-1.616;2022-07-19T02:23:34;24.0;50
29173;DHT22;16223;47.966;-1.616;2022-07-19T02:24:34;24.0;50
29173;DHT22;16223;47.966;-1.616;2022-07-19T02:25:34;24.0;50
29173;DHT22;16223;47.966;-1.616;2022-07-19T02:26:34;24.0;50
29173;DHT22;16223;47.966;-1.616;2022-07-19T02:27:34;24.0;50
29173;DHT22;16223;47.966;-1.616;2022-07-19T02:28:34;24.0;50
29173;DHT22;16223;47.966;-1.616;2022-07-19T02:29:34;24.0;50
29173;DHT22;16223;47.966;-1.616;2022-07-19T02:30:34;24.0;50
29173;DHT22;16223;47.966;-1.616;2022-07-19T02:31:34;24.0;50
29173;DHT22;16223;47.966;-1.616;2022-07-19T02:32:34;23.5;51
29173;DHT22;16223;47.966;-1.616;2022-07-19T02:33:34;23.5;51
29173;DHT22;16223;47.966;-1.616;2022-07-19T02:34:34;23.5;51
29173;DHT22;16223;47.966;-1.616;2022-07-19T02:35:34;23.5;51
29173;DHT22;16223;47.966;-1.616;2022-07-19T02:36:34;23.5;51
29173;DHT22;16223;47.966;-1.616;2022-07-19T02:37:34;23.5;51
29173;DHT22;16223;47.966;-1.616;2022-07-19T02:38:34;23.5;51
29173;DHT22;16223;47.966;-1.616;2022-07-19T02:39:34;23.5;51
29173;DHT22;16223;47.966;-1.616;2022-07-19T02:40:34;23.5;51
29173;DHT22;16223;47.966;-1.616;2022-07-19T02:41:34;23.5;51
29173;DHT22;16223;47.966;-1.616;2022-07-19T02:42:34;23.5;51
29173;DHT22;16223;47.966;-1.616;2022-07-19T02:43:35;23.5;51
29173;DHT22;16223;47.966;-1.616;2022-07-19T02:44:35;23.5;51
29173;DHT22;16223;47.966;-1.616;2022-07-19T02:45:34;23.5;51
29173;DHT22;16223;47.966;-1.616;2022-07-19T02:46:34;23.5;51
29173;DHT22;16223;47.966;-1.616;2022-07-19T02:47:35;23.5;51
29173;DHT22;16223;47.966;-1.616;2022-07-19T02:48:44;23.5;51
29173;DHT22;16223;47.966;-1.616;2022-07-19T02:49:34;23.5;51
29173;DHT22;16223;47.966;-1.616;2022-07-19T02:50:34;23.5;51
29173;DHT22;16223;47.966;-1.616;2022-07-19T02:51:34;23.5;51
29173;DHT22;16223;47.966;-1.616;2022-07-19T02:52:35;23.5;51
29173;DHT22;16223;47.966;-1.616;2022-07-19T02:53:34;23.5;51
29173;DHT22;16223;47.966;-1.616;2022-07-19T02:54:34;23.5;51
29173;DHT22;16223;47.966;-1.616;2022-07-19T02:55:34;23.5;51
29173;DHT22;16223;47.966;-1.616;2022-07-19T02:56:35;23.5;51
29173;DHT22;16223;47.966;-1.616;2022-07-19T02:57:34;23.5;51
29173;DHT22;16223;47.966;-1.616;2022-07-19T02:58:34;23.0;53
29173;DHT22;16223;47.966;-1.616;2022-07-19T02:59:34;23.0;53
29173;DHT22;16223;47.966;-1.616;2022-07-19T03:00:35;23.0;53
29173;DHT22;16223;47.966;-1.616;2022-07-19T03:01:35;23.0;53
29173;DHT22;16223;47.966;-1.616;2022-07-19T03:02:35;23.0;53
29173;DHT22;16223;47.966;-1.616;2022-07-19T03:03:34;23.0;53
29173;DHT22;16223;47.966;-1.616;2022-07-19T03:04:35;23.0;53
29173;DHT22;16223;47.966;-1.616;2022-07-19T03:05:34;23.0;53
29173;DHT22;16223;47.966;-1.616;2022-07-19T03:06:34;23.0;53
29173;DHT22;16223;47.966;-1.616;2022-07-19T03:07:34;23.0;53
29173;DHT22;16223;47.966;-1.616;2022-07-19T03:08:34;23.0;53
29173;DHT22;16223;47.966;-1.616;2022-07-19T03:09:34;23.0;53
29173;DHT22;16223;47.966;-1.616;2022-07-19T03:10:34;22.7;54
29173;DHT22;16223;47.966;-1.616;2022-07-19T03:11:34;22.7;54
29173;DHT22;16223;47.966;-1.616;2022-07-19T03:12:34;22.7;54
29173;DHT22;16223;47.966;-1.616;2022-07-19T03:13:34;22.7;54
29173;DHT22;16223;47.966;-1.616;2022-07-19T03:14:34;22.7;54
29173;DHT22;16223;47.966;-1.616;2022-07-19T03:15:44;22.7;54
29173;DHT22;16223;47.966;-1.616;2022-07-19T03:16:34;22.7;54
29173;DHT22;16223;47.966;-1.616;2022-07-19T03:17:34;22.7;54
29173;DHT22;16223;47.966;-1.616;2022-07-19T03:18:34;22.7;54
29173;DHT22;16223;47.966;-1.616;2022-07-19T03:19:34;22.7;54
29173;DHT22;16223;47.966;-1.616;2022-07-19T03:20:34;22.7;54
29173;DHT22;16223;47.966;-1.616;2022-07-19T03:21:34;22.7;54
29173;DHT22;16223;47.966;-1.616;2022-07-19T03:22:34;22.7;54
29173;DHT22;16223;47.966;-1.616;2022-07-19T03:23:35;22.7;54
29173;DHT22;16223;47.966;-1.616;2022-07-19T03:24:34;22.7;54
29173;DHT22;16223;47.966;-1.616;2022-07-19T03:25:34;22.5;54
29173;DHT22;16223;47.966;-1.616;2022-07-19T03:26:34;22.5;54
29173;DHT22;16223;47.966;-1.616;2022-07-19T03:27:34;22.5;54
29173;DHT22;16223;47.966;-1.616;2022-07-19T03:28:34;22.5;54
29173;DHT22;16223;47.966;-1.616;2022-07-19T03:29:34;22.5;54
29173;DHT22;16223;47.966;-1.616;2022-07-19T03:30:34;22.5;54
29173;DHT22;16223;47.966;-1.616;2022-07-19T03:31:34;22.5;54
29173;DHT22;16223;47.966;-1.616;2022-07-19T03:32:34;22.5;54
29173;DHT22;16223;47.966;-1.616;2022-07-19T03:33:34;22.5;54
29173;DHT22;16223;47.966;-1.616;2022-07-19T03:34:34;22.5;54
29173;DHT22;16223;47.966;-1.616;2022-07-19T03:35:35;22.5;54
29173;DHT22;16223;47.966;-1.616;2022-07-19T03:36:34;22.5;54
29173;DHT22;16223;47.966;-1.616;2022-07-19T03:37:34;22.5;54
29173;DHT22;16223;47.966;-1.616;2022-07-19T03:38:34;22.5;54
29173;DHT22;16223;47.966;-1.616;2022-07-19T03:39:34;22.5;54
29173;DHT22;16223;47.966;-1.616;2022-07-19T03:40:34;22.5;54
29173;DHT22;16223;47.966;-1.616;2022-07-19T03:41:34;22.5;54
29173;DHT22;16223;47.966;-1.616;2022-07-19T03:42:34;22.5;54
29173;DHT22;16223;47.966;-1.616;2022-07-19T03:43:34;22.5;54
29173;DHT22;16223;47.966;-1.616;2022-07-19T03:44:34;22.5;54
29173;DHT22;16223;47.966;-1.616;2022-07-19T03:45:35;22.5;54
29173;DHT22;16223;47.966;-1.616;2022-07-19T03:46:34;22.5;54
29173;DHT22;16223;47.966;-1.616;2022-07-19T03:47:34;22.5;54
29173;DHT22;16223;47.966;-1.616;2022-07-19T03:48:34;22.5;54
29173;DHT22;16223;47.966;-1.616;2022-07-19T03:49:34;22.5;54
29173;DHT22;16223;47.966;-1.616;2022-07-19T03:50:34;22.5;54
29173;DHT22;16223;47.966;-1.616;2022-07-19T03:51:34;22.5;54
29173;DHT22;16223;47.966;-1.616;2022-07-19T03:52:34;22.5;54
29173;DHT22;16223;47.966;-1.616;2022-07-19T03:53:34;22.5;54
29173;DHT22;16223;47.966;-1.616;2022-07-19T03:54:33;22.5;54
29173;DHT22;16223;47.966;-1.616;2022-07-19T03:55:34;22.5;54
29173;DHT22;16223;47.966;-1.616;2022-07-19T03:56:34;22.5;54
29173;DHT22;16223;47.966;-1.616;2022-07-19T03:57:37;22.5;54
29173;DHT22;16223;47.966;-1.616;2022-07-19T03:58:34;22.5;54
29173;DHT22;16223;47.966;-1.616;2022-07-19T03:59:34;22.5;54
29173;DHT22;16223;47.966;-1.616;2022-07-19T04:00:34;22.5;54
29173;DHT22;16223;47.966;-1.616;2022-07-19T04:01:34;22.5;54
29173;DHT22;16223;47.966;-1.616;2022-07-19T04:02:34;22.5;54
29173;DHT22;16223;47.966;-1.616;2022-07-19T04:03:39;22.5;54
29173;DHT22;16223;47.966;-1.616;2022-07-19T04:04:34;22.5;54
29173;DHT22;16223;47.966;-1.616;2022-07-19T04:05:34;22.5;54
29173;DHT22;16223;47.966;-1.616;2022-07-19T04:06:34;22.5;54
29173;DHT22;16223;47.966;-1.616;2022-07-19T04:07:34;22.5;54
29173;DHT22;16223;47.966;-1.616;2022-07-19T04:08:34;22.5;54
29173;DHT22;16223;47.966;-1.616;2022-07-19T04:09:33;22.4;56
29173;DHT22;16223;47.966;-1.616;2022-07-19T04:10:34;22.4;56
29173;DHT22;16223;47.966;-1.616;2022-07-19T04:11:33;22.4;56
29173;DHT22;16223;47.966;-1.616;2022-07-19T04:12:34;22.4;56
29173;DHT22;16223;47.966;-1.616;2022-07-19T04:13:34;22.4;56
29173;DHT22;16223;47.966;-1.616;2022-07-19T04:14:34;22.4;56
29173;DHT22;16223;47.966;-1.616;2022-07-19T04:15:34;22.4;56
29173;DHT22;16223;47.966;-1.616;2022-07-19T04:16:34;22.4;56
29173;DHT22;16223;47.966;-1.616;2022-07-19T04:17:34;22.4;56
29173;DHT22;16223;47.966;-1.616;2022-07-19T04:18:34;22.4;56
29173;DHT22;16223;47.966;-1.616;2022-07-19T04:19:34;22.4;56
29173;DHT22;16223;47.966;-1.616;2022-07-19T04:20:34;22.4;56
29173;DHT22;16223;47.966;-1.616;2022-07-19T04:21:34;22.4;56
29173;DHT22;16223;47.966;-1.616;2022-07-19T04:22:34;22.4;56
29173;DHT22;16223;47.966;-1.616;2022-07-19T04:23:34;22.4;56
29173;DHT22;16223;47.966;-1.616;2022-07-19T04:24:34;22.4;56
29173;DHT22;16223;47.966;-1.616;2022-07-19T04:25:34;22.4;56
29173;DHT22;16223;47.966;-1.616;2022-07-19T04:26:34;22.4;56
29173;DHT22;16223;47.966;-1.616;2022-07-19T04:27:34;22.4;56
29173;DHT22;16223;47.966;-1.616;2022-07-19T04:28:34;22.4;56
29173;DHT22;16223;47.966;-1.616;2022-07-19T04:29:34;22.4;56
29173;DHT22;16223;47.966;-1.616;2022-07-19T04:30:34;22.4;56
29173;DHT22;16223;47.966;-1.616;2022-07-19T04:31:34;22.4;56
29173;DHT22;16223;47.966;-1.616;2022-07-19T04:32:34;22.4;56
29173;DHT22;16223;47.966;-1.616;2022-07-19T04:33:34;22.4;56
29173;DHT22;16223;47.966;-1.616;2022-07-19T04:34:34;22.4;56
29173;DHT22;16223;47.966;-1.616;2022-07-19T04:35:34;22.4;56
29173;DHT22;16223;47.966;-1.616;2022-07-19T04:36:34;22.4;56
29173;DHT22;16223;47.966;-1.616;2022-07-19T04:37:34;22.4;56
29173;DHT22;16223;47.966;-1.616;2022-07-19T04:38:34;22.4;56
29173;DHT22;16223;47.966;-1.616;2022-07-19T04:39:34;22.4;56
29173;DHT22;16223;47.966;-1.616;2022-07-19T04:40:34;22.4;56
29173;DHT22;16223;47.966;-1.616;2022-07-19T04:41:34;22.4;56
29173;DHT22;16223;47.966;-1.616;2022-07-19T04:42:34;22.4;56
29173;DHT22;16223;47.966;-1.616;2022-07-19T04:43:34;22.4;56
29173;DHT22;16223;47.966;-1.616;2022-07-19T04:44:34;22.4;56
29173;DHT22;16223;47.966;-1.616;2022-07-19T04:45:35;22.4;56
29173;DHT22;16223;47.966;-1.616;2022-07-19T04:46:34;22.4;56
29173;DHT22;16223;47.966;-1.616;2022-07-19T04:47:34;22.4;56
29173;DHT22;16223;47.966;-1.616;2022-07-19T04:48:34;22.4;56
29173;DHT22;16223;47.966;-1.616;2022-07-19T04:49:34;22.4;56
29173;DHT22;16223;47.966;-1.616;2022-07-19T04:50:34;22.4;56
29173;DHT22;16223;47.966;-1.616;2022-07-19T04:51:34;22.4;56
29173;DHT22;16223;47.966;-1.616;2022-07-19T04:52:34;22.4;56
29173;DHT22;16223;47.966;-1.616;2022-07-19T04:53:34;22.4;56
29173;DHT22;16223;47.966;-1.616;2022-07-19T04:54:34;22.4;56
29173;DHT22;16223;47.966;-1.616;2022-07-19T04:55:35;22.4;56
29173;DHT22;16223;47.966;-1.616;2022-07-19T04:56:34;22.4;56
29173;DHT22;16223;47.966;-1.616;2022-07-19T04:57:34;22.4;56
29173;DHT22;16223;47.966;-1.616;2022-07-19T04:58:34;22.4;56
29173;DHT22;16223;47.966;-1.616;2022-07-19T04:59:34;22.4;56
29173;DHT22;16223;47.966;-1.616;2022-07-19T05:00:34;22.4;56
29173;DHT22;16223;47.966;-1.616;2022-07-19T05:01:37;22.4;56
29173;DHT22;16223;47.966;-1.616;2022-07-19T05:02:34;22.4;56
29173;DHT22;16223;47.966;-1.616;2022-07-19T05:03:34;22.4;56
29173;DHT22;16223;47.966;-1.616;2022-07-19T05:04:34;22.4;56
29173;DHT22;16223;47.966;-1.616;2022-07-19T05:05:35;22.4;56
29173;DHT22;16223;47.966;-1.616;2022-07-19T05:06:34;22.4;56
29173;DHT22;16223;47.966;-1.616;2022-07-19T05:07:34;23.0;56
29173;DHT22;16223;47.966;-1.616;2022-07-19T05:08:34;23.0;57
29173;DHT22;16223;47.966;-1.616;2022-07-19T05:09:34;23.0;57
29173;DHT22;16223;47.966;-1.616;2022-07-19T05:10:34;23.0;57
29173;DHT22;16223;47.966;-1.616;2022-07-19T05:11:34;23.0;57
29173;DHT22;16223;47.966;-1.616;2022-07-19T05:12:34;23.0;57
29173;DHT22;16223;47.966;-1.616;2022-07-19T05:13:34;23.0;57
29173;DHT22;16223;47.966;-1.616;2022-07-19T05:14:34;23.0;57
29173;DHT22;16223;47.966;-1.616;2022-07-19T05:15:34;23.0;57
29173;DHT22;16223;47.966;-1.616;2022-07-19T05:16:34;23.0;57
29173;DHT22;16223;47.966;-1.616;2022-07-19T05:17:34;23.0;57
29173;DHT22;16223;47.966;-1.616;2022-07-19T05:18:33;23.0;57
29173;DHT22;16223;47.966;-1.616;2022-07-19T05:19:34;23.0;57
29173;DHT22;16223;47.966;-1.616;2022-07-19T05:20:34;23.0;57
29173;DHT22;16223;47.966;-1.616;2022-07-19T05:21:34;23.0;57
29173;DHT22;16223;47.966;-1.616;2022-07-19T05:22:34;23.0;57
29173;DHT22;16223;47.966;-1.616;2022-07-19T05:23:34;23.0;57
29173;DHT22;16223;47.966;-1.616;2022-07-19T05:24:34;23.0;57
29173;DHT22;16223;47.966;-1.616;2022-07-19T05:25:34;23.0;57
29173;DHT22;16223;47.966;-1.616;2022-07-19T05:26:34;23.0;57
29173;DHT22;16223;47.966;-1.616;2022-07-19T05:27:34;23.0;57
29173;DHT22;16223;47.966;-1.616;2022-07-19T05:28:34;23.0;57
29173;DHT22;16223;47.966;-1.616;2022-07-19T05:29:37;23.0;57
29173;DHT22;16223;47.966;-1.616;2022-07-19T05:30:34;23.0;57
29173;DHT22;16223;47.966;-1.616;2022-07-19T05:31:34;23.0;57
29173;DHT22;16223;47.966;-1.616;2022-07-19T05:32:35;23.0;57
29173;DHT22;16223;47.966;-1.616;2022-07-19T05:33:34;23.5;56
29173;DHT22;16223;47.966;-1.616;2022-07-19T05:34:33;23.5;56
29173;DHT22;16223;47.966;-1.616;2022-07-19T05:35:34;23.5;56
29173;DHT22;16223;47.966;-1.616;2022-07-19T05:36:34;23.5;56
29173;DHT22;16223;47.966;-1.616;2022-07-19T05:37:34;23.5;56
29173;DHT22;16223;47.966;-1.616;2022-07-19T05:38:34;23.5;56
29173;DHT22;16223;47.966;-1.616;2022-07-19T05:39:34;23.5;56
29173;DHT22;16223;47.966;-1.616;2022-07-19T05:40:35;23.5;56
29173;DHT22;16223;47.966;-1.616;2022-07-19T05:41:34;24.1;55
29173;DHT22;16223;47.966;-1.616;2022-07-19T05:42:34;24.1;55
29173;DHT22;16223;47.966;-1.616;2022-07-19T05:43:34;24.1;55
29173;DHT22;16223;47.966;-1.616;2022-07-19T05:44:34;24.1;55
29173;DHT22;16223;47.966;-1.616;2022-07-19T05:45:34;24.1;55
29173;DHT22;16223;47.966;-1.616;2022-07-19T05:46:34;24.1;55
29173;DHT22;16223;47.966;-1.616;2022-07-19T05:47:34;24.1;55
29173;DHT22;16223;47.966;-1.616;2022-07-19T05:48:34;24.1;55
29173;DHT22;16223;47.966;-1.616;2022-07-19T05:49:34;24.1;55
29173;DHT22;16223;47.966;-1.616;2022-07-19T05:50:34;24.1;55
29173;DHT22;16223;47.966;-1.616;2022-07-19T05:51:34;24.1;55
29173;DHT22;16223;47.966;-1.616;2022-07-19T05:52:34;24.1;55
29173;DHT22;16223;47.966;-1.616;2022-07-19T05:53:35;24.6;55
29173;DHT22;16223;47.966;-1.616;2022-07-19T05:54:35;24.6;55
29173;DHT22;16223;47.966;-1.616;2022-07-19T05:55:35;24.6;55
29173;DHT22;16223;47.966;-1.616;2022-07-19T05:56:35;24.6;55
29173;DHT22;16223;47.966;-1.616;2022-07-19T05:57:34;24.6;55
29173;DHT22;16223;47.966;-1.616;2022-07-19T05:58:35;24.6;55
29173;DHT22;16223;47.966;-1.616;2022-07-19T05:59:34;24.8;55
29173;DHT22;16223;47.966;-1.616;2022-07-19T06:00:34;24.8;55
29173;DHT22;16223;47.966;-1.616;2022-07-19T06:01:34;24.8;55
29173;DHT22;16223;47.966;-1.616;2022-07-19T06:02:35;25.1;54
29173;DHT22;16223;47.966;-1.616;2022-07-19T06:03:35;25.1;54
29173;DHT22;16223;47.966;-1.616;2022-07-19T06:04:35;25.1;54
29173;DHT22;16223;47.966;-1.616;2022-07-19T06:05:34;25.1;54
29173;DHT22;16223;47.966;-1.616;2022-07-19T06:06:35;25.1;54
29173;DHT22;16223;47.966;-1.616;2022-07-19T06:07:35;25.1;54
29173;DHT22;16223;47.966;-1.616;2022-07-19T06:08:34;25.1;54
29173;DHT22;16223;47.966;-1.616;2022-07-19T06:09:35;25.6;54
29173;DHT22;16223;47.966;-1.616;2022-07-19T06:10:35;25.6;54
29173;DHT22;16223;47.966;-1.616;2022-07-19T06:11:34;25.6;54
29173;DHT22;16223;47.966;-1.616;2022-07-19T06:12:34;25.6;54
29173;DHT22;16223;47.966;-1.616;2022-07-19T06:13:34;25.6;54
29173;DHT22;16223;47.966;-1.616;2022-07-19T06:14:34;25.6;54
29173;DHT22;16223;47.966;-1.616;2022-07-19T06:15:35;25.6;54
29173;DHT22;16223;47.966;-1.616;2022-07-19T06:16:35;25.6;54
29173;DHT22;16223;47.966;-1.616;2022-07-19T06:17:34;25.6;54
29173;DHT22;16223;47.966;-1.616;2022-07-19T06:18:34;26.1;52
29173;DHT22;16223;47.966;-1.616;2022-07-19T06:19:34;26.1;52
29173;DHT22;16223;47.966;-1.616;2022-07-19T06:20:34;26.1;52
29173;DHT22;16223;47.966;-1.616;2022-07-19T06:21:35;26.1;52
29173;DHT22;16223;47.966;-1.616;2022-07-19T06:22:35;26.1;52
29173;DHT22;16223;47.966;-1.616;2022-07-19T06:23:34;26.1;52
29173;DHT22;16223;47.966;-1.616;2022-07-19T06:24:34;26.1;52
29173;DHT22;16223;47.966;-1.616;2022-07-19T06:25:34;26.1;52
29173;DHT22;16223;47.966;-1.616;2022-07-19T06:26:34;26.1;52
29173;DHT22;16223;47.966;-1.616;2022-07-19T06:27:34;26.1;52
29173;DHT22;16223;47.966;-1.616;2022-07-19T06:28:34;26.1;52
29173;DHT22;16223;47.966;-1.616;2022-07-19T06:29:34;26.1;52
29173;DHT22;16223;47.966;-1.616;2022-07-19T06:30:35;26.1;52
29173;DHT22;16223;47.966;-1.616;2022-07-19T06:31:35;26.6;52
29173;DHT22;16223;47.966;-1.616;2022-07-19T06:32:34;26.6;52
29173;DHT22;16223;47.966;-1.616;2022-07-19T06:33:34;26.6;52
29173;DHT22;16223;47.966;-1.616;2022-07-19T06:34:34;26.6;52
29173;DHT22;16223;47.966;-1.616;2022-07-19T06:35:34;26.6;52
29173;DHT22;16223;47.966;-1.616;2022-07-19T06:36:34;26.6;52
29173;DHT22;16223;47.966;-1.616;2022-07-19T06:37:44;26.6;52